sensor_id;sensor_type;location;lat;lon;timestamp;pressure;altitude;pressure_sealevel;temperature;humidity
39773;BME280;25451;51.960;6.250;2023-02-19T00:02:10;101540.19;;;11.38;82.51
39773;BME280;25451;51.960;6.250;2023-02-19T00:04:35;101539.97;;;11.40;82.53
39773;BME280;25451;51.960;6.250;2023-02-19T00:07:01;101539.13;;;11.39;82.57
39773;BME280;25451;51.960;6.250;2023-02-19T00:09:26;101539.56;;;11.36;82.32
39773;BME280;25451;51.960;6.250;2023-02-19T00:11:51;101535.97;;;11.36;82.60
39773;BME280;25451;51.960;6.250;2023-02-19T00:14:19;101535.38;;;11.34;82.38
39773;BME280;25451;51.960;6.250;2023-02-19T00:16:46;101552.06;;;11.39;82.55
39773;BME280;25451;51.960;6.250;2023-02-19T00:19:13;101546.78;;;11.37;82.72
39773;BME280;25451;51.960;6.250;2023-02-19T00:21:39;101538.50;;;11.37;82.67
39773;BME280;25451;51.960;6.250;2023-02-19T00:24:06;101535.97;;;11.36;82.44
39773;BME280;25451;51.960;6.250;2023-02-19T00:26:32;101548.47;;;11.38;82.48
39773;BME280;25451;51.960;6.250;2023-02-19T00:28:59;101529.44;;;11.30;82.31
39773;BME280;25451;51.960;6.250;2023-02-19T00:33:52;101545.09;;;11.36;82.55
39773;BME280;25451;51.960;6.250;2023-02-19T00:36:18;101537.53;;;11.32;82.40
39773;BME280;25451;51.960;6.250;2023-02-19T00:38:43;101535.56;;;11.32;82.68
39773;BME280;25451;51.960;6.250;2023-02-19T00:41:10;101538.59;;;11.31;82.49
39773;BME280;25451;51.960;6.250;2023-02-19T00:43:59;101540.03;;;11.33;82.70
39773;BME280;25451;51.960;6.250;2023-02-19T00:46:39;101544.47;;;11.34;82.58
39773;BME280;25451;51.960;6.250;2023-02-19T00:49:06;101536.66;;;11.31;82.49
39773;BME280;25451;51.960;6.250;2023-02-19T00:51:34;101537.53;;;11.32;82.86
39773;BME280;25451;51.960;6.250;2023-02-19T00:54:00;101537.53;;;11.32;82.49
39773;BME280;25451;51.960;6.250;2023-02-19T00:56:25;101540.50;;;11.30;82.82
39773;BME280;25451;51.960;6.250;2023-02-19T00:58:51;101540.50;;;11.30;82.76
39773;BME280;25451;51.960;6.250;2023-02-19T01:01:17;101526.53;;;11.25;82.55
39773;BME280;25451;51.960;6.250;2023-02-19T01:03:42;101534.59;;;11.27;82.89
39773;BME280;25451;51.960;6.250;2023-02-19T01:06:09;101528.09;;;11.21;82.75
39773;BME280;25451;51.960;6.250;2023-02-19T01:08:35;101530.84;;;11.21;82.77
39773;BME280;25451;51.960;6.250;2023-02-19T01:11:02;101539.75;;;11.23;82.88
39773;BME280;25451;51.960;6.250;2023-02-19T01:13:29;101542.88;;;11.27;82.55
39773;BME280;25451;51.960;6.250;2023-02-19T01:16:04;101544.78;;;11.26;82.81
39773;BME280;25451;51.960;6.250;2023-02-19T01:18:30;101542.28;;;11.25;82.63
39773;BME280;25451;51.960;6.250;2023-02-19T01:20:55;101533.38;;;11.23;82.85
39773;BME280;25451;51.960;6.250;2023-02-19T01:23:21;101528.78;;;11.17;82.81
39773;BME280;25451;51.960;6.250;2023-02-19T01:25:46;101549.09;;;11.22;82.65
39773;BME280;25451;51.960;6.250;2023-02-19T01:28:11;101542.34;;;11.18;82.79
39773;BME280;25451;51.960;6.250;2023-02-19T01:30:37;101551.72;;;11.17;82.85
39773;BME280;25451;51.960;6.250;2023-02-19T01:33:04;101544.06;;;11.19;82.89
39773;BME280;25451;51.960;6.250;2023-02-19T01:35:29;101553.41;;;11.18;82.71
39773;BME280;25451;51.960;6.250;2023-02-19T01:37:55;101551.72;;;11.17;83.00
39773;BME280;25451;51.960;6.250;2023-02-19T01:40:20;101561.94;;;11.17;82.73
39773;BME280;25451;51.960;6.250;2023-02-19T01:42:46;101554.31;;;11.12;82.92
39773;BME280;25451;51.960;6.250;2023-02-19T01:45:33;101562.78;;;11.17;83.00
39773;BME280;25451;51.960;6.250;2023-02-19T01:48:10;101560.22;;;11.16;82.80
39773;BME280;25451;51.960;6.250;2023-02-19T01:50:42;101548.78;;;11.12;82.95
39773;BME280;25451;51.960;6.250;2023-02-19T01:53:11;101558.56;;;11.15;82.92
39773;BME280;25451;51.960;6.250;2023-02-19T01:55:38;101556.84;;;11.14;82.78
39773;BME280;25451;51.960;6.250;2023-02-19T01:58:05;101557.69;;;11.14;82.83
39773;BME280;25451;51.960;6.250;2023-02-19T02:00:31;101553.25;;;11.13;82.80
39773;BME280;25451;51.960;6.250;2023-02-19T02:02:58;101541.44;;;11.06;82.78
39773;BME280;25451;51.960;6.250;2023-02-19T02:05:49;101545.91;;;11.07;82.81
39773;BME280;25451;51.960;6.250;2023-02-19T02:08:17;101557.94;;;11.13;82.82
39773;BME280;25451;51.960;6.250;2023-02-19T02:11:01;101550.94;;;11.10;82.68
39773;BME280;25451;51.960;6.250;2023-02-19T02:13:27;101559.00;;;11.12;82.80
39773;BME280;25451;51.960;6.250;2023-02-19T02:16:11;101548.41;;;11.09;82.80
39773;BME280;25451;51.960;6.250;2023-02-19T02:21:44;101556.09;;;11.07;82.81
39773;BME280;25451;51.960;6.250;2023-02-19T02:30:36;101563.78;;;11.05;82.88
39773;BME280;25451;51.960;6.250;2023-02-19T02:35:58;101566.78;;;11.03;82.89
39773;BME280;25451;51.960;6.250;2023-02-19T02:38:29;101566.16;;;11.01;82.86
39773;BME280;25451;51.960;6.250;2023-02-19T02:40:56;101563.00;;;10.98;82.85
39773;BME280;25451;51.960;6.250;2023-02-19T02:43:22;101570.59;;;11.02;83.08
39773;BME280;25451;51.960;6.250;2023-02-19T02:45:47;101562.53;;;11.01;83.08
39773;BME280;25451;51.960;6.250;2023-02-19T02:53:49;101574.44;;;11.01;83.20
39773;BME280;25451;51.960;6.250;2023-02-19T02:56:35;101564.31;;;10.95;83.16
39773;BME280;25451;51.960;6.250;2023-02-19T02:59:03;101567.69;;;10.97;83.18
39773;BME280;25451;51.960;6.250;2023-02-19T03:01:33;101569.84;;;10.95;82.83
39773;BME280;25451;51.960;6.250;2023-02-19T03:04:32;101584.25;;;10.97;83.17
39773;BME280;25451;51.960;6.250;2023-02-19T03:07:04;101588.56;;;10.93;82.99
39773;BME280;25451;51.960;6.250;2023-02-19T03:09:39;101573.53;;;10.89;83.14
39773;BME280;25451;51.960;6.250;2023-02-19T03:12:10;101584.72;;;10.94;82.96
39773;BME280;25451;51.960;6.250;2023-02-19T03:14:59;101581.81;;;10.89;83.03
39773;BME280;25451;51.960;6.250;2023-02-19T03:17:51;101590.69;;;10.91;83.03
39773;BME280;25451;51.960;6.250;2023-02-19T03:20:40;101585.00;;;10.86;83.09
39773;BME280;25451;51.960;6.250;2023-02-19T03:23:08;101593.91;;;10.88;83.30
39773;BME280;25451;51.960;6.250;2023-02-19T03:25:36;101596.66;;;10.88;83.14
39773;BME280;25451;51.960;6.250;2023-02-19T03:28:22;101589.53;;;10.80;82.95
39773;BME280;25451;51.960;6.250;2023-02-19T03:31:12;101592.06;;;10.82;82.95
39773;BME280;25451;51.960;6.250;2023-02-19T03:33:40;101608.81;;;10.87;83.00
39773;BME280;25451;51.960;6.250;2023-02-19T03:36:09;101606.03;;;10.87;83.18
39773;BME280;25451;51.960;6.250;2023-02-19T03:38:47;101605.19;;;10.87;82.99
39773;BME280;25451;51.960;6.250;2023-02-19T03:41:19;101615.38;;;10.86;83.00
39773;BME280;25451;51.960;6.250;2023-02-19T03:43:53;101618.16;;;10.86;82.99
39773;BME280;25451;51.960;6.250;2023-02-19T03:46:39;101615.06;;;10.76;82.95
39773;BME280;25451;51.960;6.250;2023-02-19T03:49:17;101628.56;;;10.84;83.21
39773;BME280;25451;51.960;6.250;2023-02-19T03:52:00;101620.28;;;10.84;82.98
39773;BME280;25451;51.960;6.250;2023-02-19T03:54:34;101625.66;;;10.79;83.00
39773;BME280;25451;51.960;6.250;2023-02-19T03:57:22;101632.44;;;10.83;83.11
39773;BME280;25451;51.960;6.250;2023-02-19T04:00:07;101633.47;;;10.82;83.31
39773;BME280;25451;51.960;6.250;2023-02-19T04:05:27;101632.88;;;10.80;83.01
39773;BME280;25451;51.960;6.250;2023-02-19T04:07:57;101638.38;;;10.80;83.01
39773;BME280;25451;51.960;6.250;2023-02-19T04:10:26;101644.53;;;10.82;82.86
39773;BME280;25451;51.960;6.250;2023-02-19T04:12:59;101636.28;;;10.75;83.01
39773;BME280;25451;51.960;6.250;2023-02-19T04:15:29;101639.28;;;10.74;83.00
39773;BME280;25451;51.960;6.250;2023-02-19T04:17:59;101635.25;;;10.76;82.93
39773;BME280;25451;51.960;6.250;2023-02-19T04:20:29;101655.63;;;10.75;83.14
39773;BME280;25451;51.960;6.250;2023-02-19T04:22:56;101656.25;;;10.77;83.04
39773;BME280;25451;51.960;6.250;2023-02-19T04:25:22;101663.25;;;10.80;82.96
39773;BME280;25451;51.960;6.250;2023-02-19T04:27:50;101666.84;;;10.80;83.02
39773;BME280;25451;51.960;6.250;2023-02-19T04:30:16;101660.47;;;10.80;82.93
39773;BME280;25451;51.960;6.250;2023-02-19T04:32:41;101664.75;;;10.76;83.15
39773;BME280;25451;51.960;6.250;2023-02-19T04:35:07;101667.72;;;10.81;82.93
39773;BME280;25451;51.960;6.250;2023-02-19T04:37:32;101658.38;;;10.75;83.13
39773;BME280;25451;51.960;6.250;2023-02-19T04:39:57;101663.72;;;10.77;83.01
39773;BME280;25451;51.960;6.250;2023-02-19T04:42:23;101670.28;;;10.76;83.09
39773;BME280;25451;51.960;6.250;2023-02-19T04:44:48;101667.53;;;10.76;82.90
39773;BME280;25451;51.960;6.250;2023-02-19T04:47:13;101671.75;;;10.78;83.19
39773;BME280;25451;51.960;6.250;2023-02-19T04:49:42;101684.47;;;10.79;83.05
39773;BME280;25451;51.960;6.250;2023-02-19T04:52:07;101679.66;;;10.75;83.16
39773;BME280;25451;51.960;6.250;2023-02-19T04:54:32;101683.03;;;10.77;83.10
39773;BME280;25451;51.960;6.250;2023-02-19T04:56:58;101695.75;;;10.78;83.01
39773;BME280;25451;51.960;6.250;2023-02-19T04:59:23;101693.47;;;10.75;82.79
39773;BME280;25451;51.960;6.250;2023-02-19T05:01:48;101697.28;;;10.74;82.90
39773;BME280;25451;51.960;6.250;2023-02-19T05:04:13;101701.94;;;10.73;83.01
39773;BME280;25451;51.960;6.250;2023-02-19T05:06:39;101706.63;;;10.73;83.05
39773;BME280;25451;51.960;6.250;2023-02-19T05:09:04;101707.28;;;10.75;83.16
39773;BME280;25451;51.960;6.250;2023-02-19T05:11:29;101723.00;;;10.74;82.71
39773;BME280;25451;51.960;6.250;2023-02-19T05:13:54;101722.13;;;10.74;83.09
39773;BME280;25451;51.960;6.250;2023-02-19T05:16:20;101725.94;;;10.73;83.11
39773;BME280;25451;51.960;6.250;2023-02-19T05:18:45;101717.50;;;10.68;83.03
39773;BME280;25451;51.960;6.250;2023-02-19T05:21:11;101727.47;;;10.69;82.99
39773;BME280;25451;51.960;6.250;2023-02-19T05:23:37;101732.97;;;10.69;83.07
39773;BME280;25451;51.960;6.250;2023-02-19T05:26:08;101735.97;;;10.67;82.98
39773;BME280;25451;51.960;6.250;2023-02-19T05:28:34;101734.06;;;10.68;82.96
39773;BME280;25451;51.960;6.250;2023-02-19T05:31:06;101739.81;;;10.66;83.05
39773;BME280;25451;51.960;6.250;2023-02-19T05:33:32;101740.03;;;10.65;83.06
39773;BME280;25451;51.960;6.250;2023-02-19T05:35:57;101745.53;;;10.65;83.21
39773;BME280;25451;51.960;6.250;2023-02-19T05:38:23;101752.16;;;10.64;83.11
39773;BME280;25451;51.960;6.250;2023-02-19T05:40:48;101743.91;;;10.57;83.17
39773;BME280;25451;51.960;6.250;2023-02-19T05:43:14;101750.44;;;10.63;83.31
39773;BME280;25451;51.960;6.250;2023-02-19T05:45:39;101759.81;;;10.62;82.92
39773;BME280;25451;51.960;6.250;2023-02-19T05:48:05;101743.06;;;10.57;83.13
39773;BME280;25451;51.960;6.250;2023-02-19T05:50:33;101751.97;;;10.59;83.27
39773;BME280;25451;51.960;6.250;2023-02-19T05:53:00;101751.13;;;10.58;83.06
39773;BME280;25451;51.960;6.250;2023-02-19T05:55:26;101757.94;;;10.56;83.16
39773;BME280;25451;51.960;6.250;2023-02-19T05:57:52;101750.72;;;10.55;83.36
39773;BME280;25451;51.960;6.250;2023-02-19T06:00:18;101759.84;;;10.55;83.27
39773;BME280;25451;51.960;6.250;2023-02-19T06:02:44;101758.59;;;10.51;83.14
39773;BME280;25451;51.960;6.250;2023-02-19T06:05:10;101752.28;;;10.44;83.13
39773;BME280;25451;51.960;6.250;2023-02-19T06:07:36;101759.06;;;10.48;83.33
39773;BME280;25451;51.960;6.250;2023-02-19T06:10:04;101763.25;;;10.51;83.34
39773;BME280;25451;51.960;6.250;2023-02-19T06:12:30;101765.19;;;10.50;83.37
39773;BME280;25451;51.960;6.250;2023-02-19T06:14:55;101777.91;;;10.51;83.42
39773;BME280;25451;51.960;6.250;2023-02-19T06:17:20;101770.28;;;10.47;83.41
39773;BME280;25451;51.960;6.250;2023-02-19T06:19:46;101776.91;;;10.46;83.17
39773;BME280;25451;51.960;6.250;2023-02-19T06:22:13;101777.75;;;10.46;83.15
39773;BME280;25451;51.960;6.250;2023-02-19T06:24:39;101775.19;;;10.45;83.33
39773;BME280;25451;51.960;6.250;2023-02-19T06:27:05;101790.25;;;10.49;83.37
39773;BME280;25451;51.960;6.250;2023-02-19T06:29:31;101774.41;;;10.38;83.49
39773;BME280;25451;51.960;6.250;2023-02-19T06:31:57;101799.16;;;10.51;83.20
39773;BME280;25451;51.960;6.250;2023-02-19T06:34:23;101811.28;;;10.50;83.20
39773;BME280;25451;51.960;6.250;2023-02-19T06:36:48;101810.88;;;10.46;83.28
39773;BME280;25451;51.960;6.250;2023-02-19T06:39:14;101821.69;;;10.48;83.40
39773;BME280;25451;51.960;6.250;2023-02-19T06:41:39;101825.31;;;10.48;83.07
39773;BME280;25451;51.960;6.250;2023-02-19T06:44:04;101835.50;;;10.48;83.27
39773;BME280;25451;51.960;6.250;2023-02-19T06:46:30;101837.41;;;10.47;83.47
39773;BME280;25451;51.960;6.250;2023-02-19T06:48:55;101835.09;;;10.44;83.53
39773;BME280;25451;51.960;6.250;2023-02-19T06:51:20;101836.13;;;10.43;83.23
39773;BME280;25451;51.960;6.250;2023-02-19T06:53:51;101833.59;;;10.42;83.37
39773;BME280;25451;51.960;6.250;2023-02-19T06:56:25;101839.13;;;10.42;83.19
39773;BME280;25451;51.960;6.250;2023-02-19T06:58:53;101834.03;;;10.39;83.22
39773;BME280;25451;51.960;6.250;2023-02-19T07:01:19;101844.66;;;10.42;83.28
39773;BME280;25451;51.960;6.250;2023-02-19T07:03:45;101843.56;;;10.43;83.41
39773;BME280;25451;51.960;6.250;2023-02-19T07:06:10;101842.94;;;10.41;83.03
39773;BME280;25451;51.960;6.250;2023-02-19T07:08:36;101857.38;;;10.43;83.47
39773;BME280;25451;51.960;6.250;2023-02-19T07:11:01;101856.16;;;10.32;83.42
39773;BME280;25451;51.960;6.250;2023-02-19T07:13:27;101868.84;;;10.40;83.31
39773;BME280;25451;51.960;6.250;2023-02-19T07:16:04;101871.00;;;10.38;83.24
39773;BME280;25451;51.960;6.250;2023-02-19T07:18:32;101856.97;;;10.33;83.32
39773;BME280;25451;51.960;6.250;2023-02-19T07:21:08;101862.50;;;10.33;83.01
39773;BME280;25451;51.960;6.250;2023-02-19T07:23:34;101871.41;;;10.35;83.45
39773;BME280;25451;51.960;6.250;2023-02-19T07:25:59;101882.88;;;10.38;83.36
39773;BME280;25451;51.960;6.250;2023-02-19T07:28:25;101894.75;;;10.39;83.33
39773;BME280;25451;51.960;6.250;2023-02-19T07:30:51;101893.50;;;10.35;83.45
39773;BME280;25451;51.960;6.250;2023-02-19T07:33:16;101893.06;;;10.38;83.52
39773;BME280;25451;51.960;6.250;2023-02-19T07:35:48;101890.09;;;10.33;83.37
39773;BME280;25451;51.960;6.250;2023-02-19T07:38:15;101896.25;;;10.35;83.61
39773;BME280;25451;51.960;6.250;2023-02-19T07:40:41;101905.16;;;10.37;83.31
39773;BME280;25451;51.960;6.250;2023-02-19T07:43:06;101913.25;;;10.32;83.27
39773;BME280;25451;51.960;6.250;2023-02-19T07:45:31;101910.50;;;10.32;83.29
39773;BME280;25451;51.960;6.250;2023-02-19T07:47:57;101917.69;;;10.39;83.37
39773;BME280;25451;51.960;6.250;2023-02-19T07:50:22;101919.19;;;10.35;83.36
39773;BME280;25451;51.960;6.250;2023-02-19T07:52:47;101935.09;;;10.40;83.35
39773;BME280;25451;51.960;6.250;2023-02-19T07:55:13;101920.47;;;10.33;83.03
39773;BME280;25451;51.960;6.250;2023-02-19T07:57:38;101929.56;;;10.40;83.47
39773;BME280;25451;51.960;6.250;2023-02-19T08:00:03;101910.91;;;10.29;83.50
39773;BME280;25451;51.960;6.250;2023-02-19T08:02:29;101929.56;;;10.40;83.33
39773;BME280;25451;51.960;6.250;2023-02-19T08:05:13;101932.75;;;10.43;83.47
39773;BME280;25451;51.960;6.250;2023-02-19T08:07:38;101926.19;;;10.44;83.11
39773;BME280;25451;51.960;6.250;2023-02-19T08:10:04;101936.34;;;10.44;83.33
39773;BME280;25451;51.960;6.250;2023-02-19T08:12:58;101937.84;;;10.40;83.04
39773;BME280;25451;51.960;6.250;2023-02-19T08:15:43;101935.09;;;10.40;83.23
39773;BME280;25451;51.960;6.250;2023-02-19T08:18:08;101935.50;;;10.37;83.41
39773;BME280;25451;51.960;6.250;2023-02-19T08:20:34;101951.44;;;10.41;83.50
39773;BME280;25451;51.960;6.250;2023-02-19T08:22:59;101960.56;;;10.42;83.38
39773;BME280;25451;51.960;6.250;2023-02-19T08:25:25;101963.31;;;10.42;83.39
39773;BME280;25451;51.960;6.250;2023-02-19T08:27:50;101966.09;;;10.42;83.43
39773;BME280;25451;51.960;6.250;2023-02-19T08:30:16;101961.00;;;10.39;83.27
39773;BME280;25451;51.960;6.250;2023-02-19T08:32:41;101961.00;;;10.39;83.40
39773;BME280;25451;51.960;6.250;2023-02-19T08:35:06;101968.00;;;10.35;83.43
39773;BME280;25451;51.960;6.250;2023-02-19T08:37:32;101974.78;;;10.39;83.32
39773;BME280;25451;51.960;6.250;2023-02-19T08:39:57;101969.09;;;10.34;83.43
39773;BME280;25451;51.960;6.250;2023-02-19T08:42:22;101986.91;;;10.38;83.42
39773;BME280;25451;51.960;6.250;2023-02-19T08:44:48;101990.31;;;10.40;83.41
39773;BME280;25451;51.960;6.250;2023-02-19T08:47:13;101991.97;;;10.41;83.09
39773;BME280;25451;51.960;6.250;2023-02-19T08:49:39;102004.72;;;10.42;83.22
39773;BME280;25451;51.960;6.250;2023-02-19T08:52:04;102003.47;;;10.44;83.27
39773;BME280;25451;51.960;6.250;2023-02-19T08:54:29;102010.66;;;10.45;83.32
39773;BME280;25451;51.960;6.250;2023-02-19T08:56:55;102020.44;;;10.48;83.43
39773;BME280;25451;51.960;6.250;2023-02-19T08:59:20;102020.44;;;10.48;83.40
39773;BME280;25451;51.960;6.250;2023-02-19T09:01:46;102031.66;;;10.53;83.28
39773;BME280;25451;51.960;6.250;2023-02-19T09:04:13;102024.22;;;10.53;83.19
39773;BME280;25451;51.960;6.250;2023-02-19T09:06:39;102020.84;;;10.58;83.12
39773;BME280;25451;51.960;6.250;2023-02-19T09:09:04;102013.19;;;10.60;83.07
39773;BME280;25451;51.960;6.250;2023-02-19T09:11:30;102007.22;;;10.63;83.09
39773;BME280;25451;51.960;6.250;2023-02-19T09:13:55;102021.66;;;10.65;83.19
39773;BME280;25451;51.960;6.250;2023-02-19T09:16:21;102031.00;;;10.64;83.02
39773;BME280;25451;51.960;6.250;2023-02-19T09:18:46;102011.25;;;10.67;82.83
39773;BME280;25451;51.960;6.250;2023-02-19T09:21:11;102030.38;;;10.68;83.00
39773;BME280;25451;51.960;6.250;2023-02-19T09:23:37;102021.63;;;10.71;83.39
39773;BME280;25451;51.960;6.250;2023-02-19T09:26:04;102032.06;;;10.69;83.11
39773;BME280;25451;51.960;6.250;2023-02-19T09:28:32;102033.53;;;10.72;83.03
39773;BME280;25451;51.960;6.250;2023-02-19T09:31:05;102048.84;;;10.74;82.98
39773;BME280;25451;51.960;6.250;2023-02-19T09:33:31;102046.94;;;10.75;82.95
39773;BME280;25451;51.960;6.250;2023-02-19T09:36:00;102062.00;;;10.79;83.24
39773;BME280;25451;51.960;6.250;2023-02-19T09:38:26;102043.97;;;10.70;83.05
39773;BME280;25451;51.960;6.250;2023-02-19T09:40:51;102064.53;;;10.80;82.96
39773;BME280;25451;51.960;6.250;2023-02-19T09:43:22;102068.16;;;10.81;82.98
39773;BME280;25451;51.960;6.250;2023-02-19T09:45:58;102083.66;;;10.82;83.11
39773;BME280;25451;51.960;6.250;2023-02-19T09:48:25;102091.94;;;10.82;83.03
39773;BME280;25451;51.960;6.250;2023-02-19T09:50:51;102107.47;;;10.83;82.99
39773;BME280;25451;51.960;6.250;2023-02-19T09:53:21;102112.34;;;10.81;83.01
39773;BME280;25451;51.960;6.250;2023-02-19T09:55:49;102112.97;;;10.83;83.25
39773;BME280;25451;51.960;6.250;2023-02-19T09:58:31;102096.19;;;10.78;83.10
39773;BME280;25451;51.960;6.250;2023-02-19T10:01:00;102111.69;;;10.85;83.07
39773;BME280;25451;51.960;6.250;2023-02-19T10:03:29;102109.78;;;10.86;83.08
39773;BME280;25451;51.960;6.250;2023-02-19T10:06:05;102133.16;;;10.90;83.07
39773;BME280;25451;51.960;6.250;2023-02-19T10:08:34;102131.25;;;10.91;82.96
39773;BME280;25451;51.960;6.250;2023-02-19T10:11:00;102124.22;;;10.95;82.97
39773;BME280;25451;51.960;6.250;2023-02-19T10:13:30;102140.16;;;10.99;83.05
39773;BME280;25451;51.960;6.250;2023-02-19T10:15:57;102135.91;;;10.97;83.00
39773;BME280;25451;51.960;6.250;2023-02-19T10:18:26;102138.44;;;11.05;83.04
39773;BME280;25451;51.960;6.250;2023-02-19T10:20:54;102136.31;;;11.07;82.92
39773;BME280;25451;51.960;6.250;2023-02-19T10:23:20;102123.97;;;11.09;82.96
39773;BME280;25451;51.960;6.250;2023-02-19T10:25:57;102131.19;;;11.10;82.83
39773;BME280;25451;51.960;6.250;2023-02-19T10:28:28;102148.81;;;11.16;82.86
39773;BME280;25451;51.960;6.250;2023-02-19T10:30:56;102163.47;;;11.16;83.04
39773;BME280;25451;51.960;6.250;2023-02-19T10:33:23;102169.63;;;11.18;83.02
39773;BME280;25451;51.960;6.250;2023-02-19T10:35:58;102181.56;;;11.19;83.02
39773;BME280;25451;51.960;6.250;2023-02-19T10:38:45;102189.22;;;11.17;82.98
39773;BME280;25451;51.960;6.250;2023-02-19T10:41:13;102195.38;;;11.12;82.81
39773;BME280;25451;51.960;6.250;2023-02-19T10:43:44;102192.84;;;11.04;82.88
39773;BME280;25451;51.960;6.250;2023-02-19T10:46:16;102200.06;;;11.05;82.66
39773;BME280;25451;51.960;6.250;2023-02-19T10:48:49;102189.03;;;10.99;82.94
39773;BME280;25451;51.960;6.250;2023-02-19T10:51:16;102197.94;;;10.94;83.06
39773;BME280;25451;51.960;6.250;2023-02-19T10:53:50;102204.75;;;10.92;83.16
39773;BME280;25451;51.960;6.250;2023-02-19T10:56:26;102215.38;;;10.88;83.12
39773;BME280;25451;51.960;6.250;2023-02-19T10:58:53;102213.25;;;10.83;83.22
39773;BME280;25451;51.960;6.250;2023-02-19T11:01:20;102222.41;;;10.84;83.23
39773;BME280;25451;51.960;6.250;2023-02-19T11:03:50;102223.00;;;10.73;83.07
39773;BME280;25451;51.960;6.250;2023-02-19T11:06:20;102223.47;;;10.76;83.27
39773;BME280;25451;51.960;6.250;2023-02-19T11:08:56;102223.00;;;10.73;83.28
39773;BME280;25451;51.960;6.250;2023-02-19T11:13:55;102201.78;;;10.67;83.34
39773;BME280;25451;51.960;6.250;2023-02-19T11:16:22;102203.91;;;10.71;83.54
39773;BME280;25451;51.960;6.250;2023-02-19T11:18:55;102206.88;;;10.70;83.15
39773;BME280;25451;51.960;6.250;2023-02-19T11:21:27;102191.81;;;10.66;83.01
39773;BME280;25451;51.960;6.250;2023-02-19T11:23:58;102196.47;;;10.65;83.23
39773;BME280;25451;51.960;6.250;2023-02-19T11:26:26;102196.03;;;10.62;83.19
39773;BME280;25451;51.960;6.250;2023-02-19T11:29:00;102194.97;;;10.63;83.28
39773;BME280;25451;51.960;6.250;2023-02-19T11:31:28;102200.50;;;10.56;83.32
39773;BME280;25451;51.960;6.250;2023-02-19T11:33:56;102205.59;;;10.59;83.42
39773;BME280;25451;51.960;6.250;2023-02-19T11:36:34;102192.00;;;10.51;83.32
39773;BME280;25451;51.960;6.250;2023-02-19T11:39:18;102192.22;;;10.50;83.34
39773;BME280;25451;51.960;6.250;2023-02-19T11:41:54;102208.78;;;10.50;83.21
39773;BME280;25451;51.960;6.250;2023-02-19T11:47:26;102221.31;;;10.46;83.21
39773;BME280;25451;51.960;6.250;2023-02-19T11:53:02;102229.81;;;10.44;83.02
39773;BME280;25451;51.960;6.250;2023-02-19T11:58:37;102238.72;;;10.46;82.92
39773;BME280;25451;51.960;6.250;2023-02-19T12:12:59;102227.47;;;10.48;82.79
39773;BME280;25451;51.960;6.250;2023-02-19T12:18:10;102239.16;;;10.50;82.73
39773;BME280;25451;51.960;6.250;2023-02-19T12:43:12;102239.97;;;10.37;82.71
39773;BME280;25451;51.960;6.250;2023-02-19T12:45:52;102230.19;;;10.35;82.48
39773;BME280;25451;51.960;6.250;2023-02-19T12:51:03;102228.06;;;10.24;82.74
39773;BME280;25451;51.960;6.250;2023-02-19T12:53:39;102249.31;;;10.30;82.57
39773;BME280;25451;51.960;6.250;2023-02-19T12:56:12;102251.41;;;10.28;82.68
39773;BME280;25451;51.960;6.250;2023-02-19T12:58:47;102243.75;;;10.23;82.64
39773;BME280;25451;51.960;6.250;2023-02-19T13:01:41;102250.97;;;10.24;82.85
39773;BME280;25451;51.960;6.250;2023-02-19T13:04:56;102256.69;;;10.23;82.52
39773;BME280;25451;51.960;6.250;2023-02-19T13:07:35;102234.81;;;10.15;82.72
39773;BME280;25451;51.960;6.250;2023-02-19T13:10:26;102255.41;;;10.19;82.53
39773;BME280;25451;51.960;6.250;2023-02-19T13:12:57;102261.53;;;10.14;82.79
39773;BME280;25451;51.960;6.250;2023-02-19T13:15:50;102270.47;;;10.16;82.70
39773;BME280;25451;51.960;6.250;2023-02-19T13:18:21;102275.16;;;10.16;82.66
39773;BME280;25451;51.960;6.250;2023-02-19T13:20:48;102278.94;;;10.15;82.79
39773;BME280;25451;51.960;6.250;2023-02-19T13:23:25;102281.06;;;10.13;82.73
39773;BME280;25451;51.960;6.250;2023-02-19T13:29:17;102291.66;;;10.09;82.70
39773;BME280;25451;51.960;6.250;2023-02-19T13:37:12;102302.25;;;10.06;82.90
39773;BME280;25451;51.960;6.250;2023-02-19T13:39:47;102301.78;;;10.02;82.63
39773;BME280;25451;51.960;6.250;2023-02-19T13:42:24;102310.69;;;10.04;82.80
39773;BME280;25451;51.960;6.250;2023-02-19T13:44:50;102308.75;;;9.98;82.75
39773;BME280;25451;51.960;6.250;2023-02-19T13:47:44;102314.94;;;10.00;82.66
39773;BME280;25451;51.960;6.250;2023-02-19T13:50:20;102322.38;;;9.99;82.76
39773;BME280;25451;51.960;6.250;2023-02-19T13:52:46;102299.84;;;9.89;82.64
39773;BME280;25451;51.960;6.250;2023-02-19T14:00:59;102324.22;;;9.92;82.62
39773;BME280;25451;51.960;6.250;2023-02-19T14:06:05;102314.06;;;9.93;82.70
39773;BME280;25451;51.960;6.250;2023-02-19T14:08:53;102318.31;;;9.95;82.79
39773;BME280;25451;51.960;6.250;2023-02-19T14:14:38;102333.59;;;9.91;82.42
39773;BME280;25451;51.960;6.250;2023-02-19T14:17:27;102326.78;;;9.87;82.45
39773;BME280;25451;51.960;6.250;2023-02-19T14:27:53;102336.28;;;9.85;82.30
39773;BME280;25451;51.960;6.250;2023-02-19T14:30:20;102337.94;;;9.79;82.50
39773;BME280;25451;51.960;6.250;2023-02-19T14:32:47;102349.00;;;9.86;82.39
39773;BME280;25451;51.960;6.250;2023-02-19T14:35:24;102342.00;;;9.83;82.47
39773;BME280;25451;51.960;6.250;2023-02-19T14:37:52;102338.59;;;9.81;82.35
39773;BME280;25451;51.960;6.250;2023-02-19T14:40:22;102317.75;;;9.72;82.28
39773;BME280;25451;51.960;6.250;2023-02-19T14:42:52;102328.38;;;9.75;82.34
39773;BME280;25451;51.960;6.250;2023-02-19T14:45:19;102336.00;;;9.73;82.40
39773;BME280;25451;51.960;6.250;2023-02-19T14:47:46;102315.00;;;9.72;82.52